logo
Search for airport 
image banner adimage banner adimage banner ad
image banner ad

TDCF - Roseau / Canefield - Int

Located in Roseau, Dominica

ICAO - TDCF, IATA - DCF

Data provided by Airmate  

General information

Coordinates: N15°20'12" W61°23'32"
Elevation is 13 feet MSL.
Magnetic variation is -15° East
Rated:
View ratings:
[VIEW]
View others Airports in Saint Paul

Operational data

Special qualification required
Current time UTC:
Current local time:
Weather
METAR: TDCF 231800Z 29003KT 9999 BKN018 30/22 Q1013
View NOTAMs / SUP AIP / TFR affecting this airport [VIEW]
Communications frequencies: [VIEW]

Runways:

RWY identifierQFULength (ft)Width (ft)SurfaceLDA (ft)
01355°312375ASP
19175°312375ASP

Airport contact information

Address: Roseau Dominica

Satellite view of TDCF